Huvudsida
METAR-TAF:

METAR-TAF

Flygplatser :

Luleå Airport

Luleå, Sverige

latitud: 65-33N, longitud: 022-08E, höjd: 17 m

Aktuellt väderrapport

Denna rapport gjordes för 28 minuter sedan, klockan 15:20 UTC
Vind 13 kt från syd
Temperatur 17°C
Fuktighet 82%
Tryck 1011 hPa
Sikt 10 km eller mer
Inga moln under 1 500 m eller inga cumulonimbus

METAR: ESPA 161520Z 17013KT CAVOK 17/14 Q1011

Tid: 17:48 (15:48 UTC)

Väderprognos

Denna rapport gjordes för 1 timme och 43 minuter sedan, klockan 14:05 UTC
Prognos gäller från 16 kl. 15 UTC till 16 kl. 23 UTC
Vind 15 kt från syd i byarna ända upp till 25 kt
Sikt 10 km eller mer
Inga moln under 1 500 m eller inga cumulonimbus

TAF: ESPA 161405Z 1615/1623 17015G25KT CAVOK

Aktuella väderrapporter och prognoser från 4000 flygplatser (METAR- och TAF-rapporter).

De tillgängliga stationerna syns som gula och röda prickar på kartan.

För musen över prickarna för att se namnen på stationerna.

Klicka sedan för att få väderrapporter och prognoser.

För att ändra kartan: Klicka på de gröna knapparna med ett svart kors på för att zooma in; den gröna knappen med ett streck på för att zooma ut; eller på de gröna pilarna för angränsande kartor.


METAR-TAF: